Time;durP1;ratioP1;P1;durP2;ratioP2;P2;SDS_P1;SDS_P2;PMS_P1;PMS_P2;Temp;Humidity;BMP_temperature;BMP_pressure;BME280_temperature;BME280_humidity;BME280_pressure;Samples;Min_cycle;Max_cycle;Signal;HPM_P1;HPM_P2
2021/05/24 00:02:16;;;;;;;2.95;1.60;;;12.30;99.90;;;;;;5110816;28;20123;-64
2021/05/24 00:04:42;;;;;;;4.57;1.83;;;12.20;99.90;;;;;;5108279;28;20053;-64
2021/05/24 00:07:07;;;;;;;4.47;1.75;;;12.20;99.90;;;;;;5110399;28;20028;-64
2021/05/24 00:09:33;;;;;;;8.77;2.50;;;12.20;99.90;;;;;;5110278;28;20076;-65
2021/05/24 00:12:01;;;;;;;3.05;1.30;;;12.20;99.90;;;;;;5109671;28;20028;-65
2021/05/24 00:14:28;;;;;;;6.60;1.30;;;12.00;99.90;;;;;;5109225;28;20112;-65
2021/05/24 00:16:54;;;;;;;3.50;1.80;;;12.00;99.90;;;;;;5109656;28;20023;-64
2021/05/24 00:19:19;;;;;;;7.03;1.80;;;12.00;99.90;;;;;;5110222;28;20438;-64
2021/05/24 00:21:45;;;;;;;2.70;1.45;;;12.00;99.90;;;;;;5109314;28;20378;-64
2021/05/24 00:24:11;;;;;;;2.95;1.23;;;11.90;99.90;;;;;;5110233;28;20035;-65
2021/05/24 00:26:37;;;;;;;3.67;1.77;;;12.00;99.90;;;;;;5109782;28;20464;-77
2021/05/24 00:29:03;;;;;;;3.33;1.75;;;12.00;99.90;;;;;;5110135;28;20141;-65
2021/05/24 00:31:28;;;;;;;3.50;1.60;;;12.10;99.90;;;;;;5108713;28;20019;-65
2021/05/24 00:33:54;;;;;;;2.35;1.48;;;12.10;99.90;;;;;;5109466;28;20057;-65
2021/05/24 00:36:20;;;;;;;6.40;2.20;;;12.00;99.90;;;;;;5109969;28;20464;-64
2021/05/24 00:38:45;;;;;;;5.07;1.50;;;11.90;99.90;;;;;;5109540;28;20023;-65
2021/05/24 00:41:11;;;;;;;3.22;1.77;;;11.80;99.90;;;;;;5110499;28;20024;-67
2021/05/24 00:43:37;;;;;;;1.73;1.20;;;11.80;99.90;;;;;;5091471;28;20035;-64
2021/05/24 00:46:03;;;;;;;3.35;1.88;;;11.80;99.90;;;;;;5110121;28;20042;-64
2021/05/24 00:48:29;;;;;;;3.05;1.50;;;11.80;99.90;;;;;;5109782;28;20028;-64
2021/05/24 00:50:55;;;;;;;4.28;1.58;;;11.70;99.90;;;;;;5112554;28;20465;-64
2021/05/24 00:53:20;;;;;;;2.35;1.20;;;11.60;99.90;;;;;;5113652;28;20045;-64
2021/05/24 00:55:46;;;;;;;3.42;1.30;;;11.50;99.90;;;;;;5112584;28;20123;-65
2021/05/24 00:58:12;;;;;;;7.70;2.30;;;11.40;99.90;;;;;;5113359;28;20032;-64
2021/05/24 01:00:47;;;;;;;2.28;1.10;;;11.50;99.90;;;;;;5113029;28;20052;-64
2021/05/24 01:03:14;;;;;;;2.70;1.40;;;11.60;99.90;;;;;;5113392;28;20099;-64
2021/05/24 01:05:41;;;;;;;1.75;1.20;;;11.60;99.90;;;;;;5112785;28;20032;-71
2021/05/24 01:08:09;;;;;;;2.92;1.20;;;11.70;99.90;;;;;;5111898;28;20111;-64
2021/05/24 01:10:35;;;;;;;1.83;1.40;;;11.60;99.90;;;;;;5113104;28;20032;-64
2021/05/24 01:13:01;;;;;;;2.58;1.60;;;11.70;99.90;;;;;;5112279;28;20033;-65
2021/05/24 01:15:28;;;;;;;3.83;1.20;;;11.60;99.90;;;;;;5112077;28;20024;-64
2021/05/24 01:17:55;;;;;;;4.05;1.48;;;11.60;99.90;;;;;;5110941;28;20075;-64
2021/05/24 01:20:22;;;;;;;3.05;1.90;;;11.50;99.90;;;;;;5112990;28;20035;-65
2021/05/24 01:22:57;;;;;;;5.90;2.50;;;11.50;99.90;;;;;;5112506;28;20372;-64
2021/05/24 01:25:24;;;;;;;2.33;1.60;;;11.40;99.90;;;;;;5111631;28;20053;-63
2021/05/24 01:27:50;;;;;;;3.30;1.40;;;11.40;99.90;;;;;;5111092;28;20023;-64
2021/05/24 01:30:16;;;;;;;2.10;1.13;;;11.30;99.90;;;;;;5112988;28;20437;-63
2021/05/24 01:32:41;;;;;;;4.38;1.98;;;11.30;99.90;;;;;;5112547;28;20485;-64
2021/05/24 01:35:08;;;;;;;3.28;1.25;;;11.20;99.90;;;;;;5111235;28;20118;-63
2021/05/24 01:37:33;;;;;;;3.58;1.58;;;11.20;99.90;;;;;;5111308;28;20047;-64
2021/05/24 01:40:00;;;;;;;2.22;1.40;;;11.10;99.90;;;;;;5111970;28;20031;-64
2021/05/24 01:42:26;;;;;;;8.48;2.35;;;11.10;99.90;;;;;;5112524;28;20098;-64
2021/05/24 01:44:52;;;;;;;3.60;1.27;;;11.10;99.90;;;;;;5110497;28;20142;-65
2021/05/24 01:47:17;;;;;;;2.50;1.25;;;11.20;99.90;;;;;;5112553;28;20035;-65
2021/05/24 01:49:47;;;;;;;3.60;1.55;;;11.20;99.90;;;;;;5111877;28;20023;-65
2021/05/24 01:52:14;;;;;;;4.40;1.52;;;11.20;99.90;;;;;;5112334;28;20027;-64
2021/05/24 01:54:41;;;;;;;2.85;1.27;;;11.20;99.90;;;;;;5112163;28;20057;-64
2021/05/24 01:57:08;;;;;;;2.55;1.40;;;11.10;99.90;;;;;;5112393;28;20016;-64
2021/05/24 01:59:34;;;;;;;3.75;2.20;;;11.00;99.90;;;;;;5110507;28;20020;-64
2021/05/24 02:02:00;;;;;;;2.35;1.20;;;11.10;99.90;;;;;;5111264;28;20028;-65
2021/05/24 02:04:26;;;;;;;2.83;1.15;;;11.10;99.90;;;;;;5112043;28;20035;-64
2021/05/24 02:06:52;;;;;;;3.72;1.48;;;11.00;99.90;;;;;;5111374;28;20345;-64
2021/05/24 02:09:17;;;;;;;4.45;1.30;;;11.00;99.90;;;;;;5111740;28;20023;-64
2021/05/24 02:11:43;;;;;;;3.13;1.42;;;11.00;99.90;;;;;;5109917;28;20020;-77
2021/05/24 02:14:09;;;;;;;3.90;1.52;;;11.00;99.90;;;;;;5111699;28;20035;-63
2021/05/24 02:16:43;;;;;;;2.17;1.33;;;11.00;99.90;;;;;;5110051;28;20139;-64
2021/05/24 02:19:10;;;;;;;2.90;1.67;;;11.10;99.90;;;;;;5111633;28;20084;-64
2021/05/24 02:21:38;;;;;;;2.80;1.40;;;11.00;99.90;;;;;;5111464;28;20024;-64
2021/05/24 02:24:05;;;;;;;3.03;1.52;;;11.00;99.90;;;;;;5111321;28;20284;-65
2021/05/24 02:26:31;;;;;;;1.55;1.15;;;10.90;99.90;;;;;;5111454;28;20050;-65
2021/05/24 02:28:57;;;;;;;4.25;1.90;;;10.90;99.90;;;;;;5110693;28;20016;-65
2021/05/24 02:31:23;;;;;;;3.40;1.30;;;10.90;99.90;;;;;;5111423;28;20023;-65
2021/05/24 02:33:48;;;;;;;4.05;1.70;;;11.00;99.90;;;;;;5110833;28;20368;-65
2021/05/24 02:36:15;;;;;;;3.85;1.58;;;11.00;99.90;;;;;;5109938;28;20080;-65
2021/05/24 02:38:43;;;;;;;4.10;1.50;;;11.00;99.90;;;;;;5111358;28;20035;-64
2021/05/24 02:41:09;;;;;;;4.40;1.08;;;10.90;99.90;;;;;;5110814;28;20110;-63
2021/05/24 02:43:35;;;;;;;3.97;2.08;;;10.80;99.90;;;;;;5110826;28;20500;-64
2021/05/24 02:46:01;;;;;;;3.38;1.15;;;10.80;99.90;;;;;;5110927;28;20056;-64
2021/05/24 02:48:26;;;;;;;3.58;1.30;;;10.80;99.90;;;;;;5110777;28;20047;-63
2021/05/24 02:50:52;;;;;;;2.60;1.65;;;10.60;99.90;;;;;;5110497;28;20103;-63
2021/05/24 02:53:18;;;;;;;2.85;1.20;;;10.60;99.90;;;;;;5111376;28;20176;-64
2021/05/24 02:55:44;;;;;;;2.72;1.58;;;10.60;99.90;;;;;;5111508;28;20031;-64
2021/05/24 02:58:09;;;;;;;2.70;1.30;;;10.70;99.90;;;;;;5110709;28;20114;-63
2021/05/24 03:00:35;;;;;;;1.80;0.90;;;10.70;99.90;;;;;;5110766;28;20078;-64
2021/05/24 03:03:01;;;;;;;3.30;1.30;;;10.60;99.90;;;;;;5110449;28;20127;-63
2021/05/24 03:05:26;;;;;;;3.97;1.38;;;10.60;99.90;;;;;;5110826;28;20028;-63
2021/05/24 03:07:53;;;;;;;3.30;1.60;;;10.60;99.90;;;;;;5110036;28;20039;-64
2021/05/24 03:10:24;;;;;;;3.05;1.20;;;10.60;99.90;;;;;;5110629;28;20035;-64
2021/05/24 03:12:50;;;;;;;2.92;2.00;;;10.60;99.90;;;;;;5109500;28;20051;-64
2021/05/24 03:15:17;;;;;;;3.78;1.50;;;10.60;99.90;;;;;;5110460;28;20038;-64
2021/05/24 03:17:43;;;;;;;3.70;1.70;;;10.60;99.90;;;;;;5110461;28;20043;-64
2021/05/24 03:20:11;;;;;;;1.90;1.30;;;10.50;99.90;;;;;;5108228;28;20023;-64
2021/05/24 03:22:37;;;;;;;2.58;1.50;;;10.50;99.90;;;;;;5109171;28;20027;-63
2021/05/24 03:25:04;;;;;;;2.33;1.75;;;10.40;99.90;;;;;;5109715;28;20028;-64
2021/05/24 03:27:29;;;;;;;2.30;1.25;;;10.50;99.90;;;;;;5109101;28;20023;-64
2021/05/24 03:29:55;;;;;;;2.72;1.40;;;10.40;99.90;;;;;;5108293;28;20461;-64
2021/05/24 03:32:21;;;;;;;3.33;1.83;;;10.40;99.90;;;;;;5110694;28;20020;-63
2021/05/24 03:34:46;;;;;;;4.47;1.77;;;10.30;99.90;;;;;;5110083;28;20032;-64
2021/05/24 03:37:12;;;;;;;4.93;1.42;;;10.30;99.90;;;;;;5108388;28;20484;-64
2021/05/24 03:39:38;;;;;;;3.85;1.90;;;10.30;99.90;;;;;;5110443;28;20023;-64
2021/05/24 03:42:04;;;;;;;2.75;1.55;;;10.30;99.90;;;;;;5109945;28;20160;-63
2021/05/24 03:44:29;;;;;;;2.33;1.50;;;10.30;99.90;;;;;;5110581;28;20028;-64
2021/05/24 03:46:55;;;;;;;2.60;1.35;;;10.20;99.90;;;;;;5110177;28;20171;-64
2021/05/24 03:49:21;;;;;;;1.83;1.45;;;10.20;99.90;;;;;;5110488;28;20023;-64
2021/05/24 03:51:46;;;;;;;2.53;1.40;;;10.20;99.90;;;;;;5110024;28;20054;-64
2021/05/24 03:54:12;;;;;;;4.10;1.50;;;10.30;99.90;;;;;;5109697;28;20084;-64
2021/05/24 03:56:38;;;;;;;1.70;1.23;;;10.20;99.90;;;;;;5110000;28;20383;-63
2021/05/24 03:59:03;;;;;;;3.35;1.48;;;10.20;99.90;;;;;;5109851;28;20449;-64
2021/05/24 04:01:29;;;;;;;4.38;1.98;;;10.20;99.90;;;;;;5108803;28;20024;-63
2021/05/24 04:03:56;;;;;;;5.65;1.75;;;10.20;99.90;;;;;;5109221;28;20046;-63
2021/05/24 04:06:25;;;;;;;3.55;1.40;;;10.30;99.90;;;;;;5110436;28;20453;-65
2021/05/24 04:08:51;;;;;;;5.32;1.52;;;10.30;99.90;;;;;;5109472;28;20030;-64
2021/05/24 04:11:17;;;;;;;7.13;1.48;;;10.40;99.90;;;;;;5110224;28;20333;-63
2021/05/24 04:13:49;;;;;;;5.70;1.75;;;10.40;99.90;;;;;;5110216;28;20409;-63
2021/05/24 04:16:14;;;;;;;2.80;1.45;;;10.40;99.90;;;;;;5109688;28;20030;-63
2021/05/24 04:18:44;;;;;;;2.25;1.40;;;10.40;99.90;;;;;;5110273;28;20051;-64
2021/05/24 04:21:10;;;;;;;4.65;1.50;;;10.40;99.90;;;;;;5108227;28;20030;-64
2021/05/24 04:23:36;;;;;;;1.65;1.27;;;10.40;99.90;;;;;;5111324;28;20417;-63
2021/05/24 04:26:01;;;;;;;3.78;1.13;;;10.50;99.90;;;;;;5112315;28;20384;-63
2021/05/24 04:28:27;;;;;;;2.38;1.23;;;10.40;99.90;;;;;;5113720;28;20047;-63
2021/05/24 04:30:52;;;;;;;1.75;1.40;;;10.30;99.90;;;;;;5113451;28;20035;-63
2021/05/24 04:33:18;;;;;;;3.50;1.25;;;10.30;99.90;;;;;;5113999;28;20448;-64
2021/05/24 04:35:44;;;;;;;3.45;1.65;;;10.50;99.90;;;;;;5112434;28;20023;-64
2021/05/24 04:38:09;;;;;;;2.13;1.63;;;10.50;99.90;;;;;;5111609;28;20032;-64
2021/05/24 04:40:35;;;;;;;2.35;1.35;;;10.60;99.90;;;;;;5112304;28;20037;-64
2021/05/24 04:43:01;;;;;;;2.45;1.20;;;10.50;99.90;;;;;;5113149;28;20050;-64
2021/05/24 04:45:26;;;;;;;4.22;1.15;;;10.60;99.90;;;;;;5113671;28;20104;-63
2021/05/24 04:47:52;;;;;;;2.65;1.50;;;10.60;99.90;;;;;;5113040;28;20034;-75
2021/05/24 04:50:18;;;;;;;3.53;1.30;;;10.70;99.90;;;;;;5113230;28;20034;-64
2021/05/24 04:52:44;;;;;;;4.65;1.45;;;10.80;99.90;;;;;;5113469;28;20024;-64
2021/05/24 04:55:11;;;;;;;3.65;1.35;;;10.80;99.90;;;;;;5112866;28;20377;-64
2021/05/24 04:57:37;;;;;;;2.17;1.20;;;11.00;99.90;;;;;;5112070;28;20066;-63
2021/05/24 05:00:07;;;;;;;3.05;1.38;;;11.10;99.90;;;;;;5111513;28;20027;-64
2021/05/24 05:02:32;;;;;;;4.40;2.40;;;11.10;99.90;;;;;;5113269;28;20149;-63
2021/05/24 05:04:58;;;;;;;3.22;1.30;;;11.00;99.90;;;;;;5111308;28;20118;-64
2021/05/24 05:07:24;;;;;;;2.22;1.52;;;11.10;99.90;;;;;;5112094;28;20027;-64
2021/05/24 05:09:49;;;;;;;2.13;1.05;;;11.00;99.90;;;;;;5113252;28;20208;-64
2021/05/24 05:12:15;;;;;;;2.85;1.30;;;11.20;99.90;;;;;;5112457;28;20027;-63
2021/05/24 05:14:41;;;;;;;1.58;1.15;;;11.10;99.90;;;;;;5113062;28;20023;-64
2021/05/24 05:17:07;;;;;;;2.25;1.08;;;11.30;99.90;;;;;;5112189;28;20083;-64
2021/05/24 05:19:33;;;;;;;2.45;1.05;;;11.50;99.90;;;;;;5113317;28;20047;-65
2021/05/24 05:21:58;;;;;;;4.13;1.50;;;11.60;99.90;;;;;;5112601;28;20023;-64
2021/05/24 05:24:24;;;;;;;2.15;1.20;;;11.70;99.90;;;;;;5112912;27;20152;-64
2021/05/24 05:26:49;;;;;;;2.22;1.30;;;11.60;99.90;;;;;;5113520;28;20031;-64
2021/05/24 05:29:15;;;;;;;2.45;1.45;;;11.60;99.90;;;;;;5112402;28;20027;-64
2021/05/24 05:31:41;;;;;;;14.88;2.50;;;12.00;99.90;;;;;;5111830;28;20027;-64
2021/05/24 05:34:07;;;;;;;3.90;1.42;;;12.20;99.90;;;;;;5112736;28;20468;-64
2021/05/24 05:36:33;;;;;;;3.72;1.20;;;12.10;99.90;;;;;;5112271;28;20059;-64
2021/05/24 05:39:00;;;;;;;3.00;1.30;;;12.10;99.90;;;;;;5112140;28;20020;-66
2021/05/24 05:41:26;;;;;;;1.90;1.20;;;12.30;99.90;;;;;;5112883;28;20195;-64
2021/05/24 05:43:51;;;;;;;4.60;1.38;;;12.30;99.90;;;;;;5112744;28;20039;-64
2021/05/24 05:46:17;;;;;;;1.77;1.00;;;12.30;99.90;;;;;;5112207;28;20043;-64
2021/05/24 05:48:43;;;;;;;5.75;1.70;;;12.30;99.90;;;;;;5112782;28;20038;-64
2021/05/24 05:51:11;;;;;;;2.53;1.58;;;12.50;99.90;;;;;;5111853;28;20034;-65
2021/05/24 05:53:37;;;;;;;2.80;1.20;;;12.60;99.90;;;;;;5111150;28;20057;-64
2021/05/24 05:56:03;;;;;;;2.42;2.20;;;12.80;99.90;;;;;;5112104;28;20475;-65
2021/05/24 05:58:29;;;;;;;2.88;1.42;;;13.00;99.90;;;;;;5112589;28;20108;-64
2021/05/24 06:00:55;;;;;;;2.95;1.52;;;12.80;99.90;;;;;;5111118;28;20047;-64
2021/05/24 06:03:20;;;;;;;1.88;1.20;;;12.90;99.90;;;;;;5111350;28;20024;-65
2021/05/24 06:05:46;;;;;;;6.38;1.35;;;13.00;99.90;;;;;;5112402;28;20303;-65
2021/05/24 06:08:11;;;;;;;3.80;2.15;;;13.10;99.90;;;;;;5111547;28;20102;-65
2021/05/24 06:10:37;;;;;;;2.47;1.25;;;12.80;99.90;;;;;;5112194;28;20340;-65
2021/05/24 06:13:03;;;;;;;3.17;1.77;;;12.80;99.90;;;;;;5111648;28;20034;-65
2021/05/24 06:15:29;;;;;;;1.85;1.17;;;12.50;99.90;;;;;;5112395;28;20031;-64
2021/05/24 06:17:54;;;;;;;2.45;1.23;;;12.70;99.90;;;;;;5112057;28;20057;-64
2021/05/24 06:20:20;;;;;;;2.85;1.52;;;12.80;99.90;;;;;;5111220;28;20027;-64
2021/05/24 06:22:46;;;;;;;6.10;1.33;;;13.00;99.90;;;;;;5111955;28;20102;-64
2021/05/24 06:25:12;;;;;;;1.63;1.25;;;13.30;99.90;;;;;;5111311;28;20429;-65
2021/05/24 06:27:39;;;;;;;3.28;1.30;;;13.30;99.90;;;;;;5110538;28;20507;-65
2021/05/24 06:30:07;;;;;;;3.60;1.20;;;13.30;99.90;;;;;;5111337;28;20083;-65
2021/05/24 06:32:32;;;;;;;3.42;1.70;;;13.30;99.90;;;;;;5110364;28;20028;-65
2021/05/24 06:34:58;;;;;;;3.10;1.50;;;13.50;99.90;;;;;;5112101;28;20088;-77
2021/05/24 06:37:24;;;;;;;3.92;1.20;;;13.40;99.90;;;;;;5112085;28;20036;-65
2021/05/24 06:39:50;;;;;;;2.20;1.20;;;13.40;99.90;;;;;;5111808;28;20113;-64
2021/05/24 06:42:15;;;;;;;2.45;1.00;;;13.40;99.90;;;;;;5110809;28;20098;-64
2021/05/24 06:44:41;;;;;;;4.38;1.33;;;13.20;99.90;;;;;;5109673;28;20118;-64
2021/05/24 06:47:07;;;;;;;2.90;0.93;;;13.20;99.90;;;;;;5109876;28;20036;-64
2021/05/24 06:49:34;;;;;;;6.53;1.52;;;13.10;99.90;;;;;;5110421;28;20034;-65
2021/05/24 06:52:02;;;;;;;2.50;0.90;;;13.20;99.90;;;;;;5110709;28;20020;-67
2021/05/24 06:54:28;;;;;;;4.13;0.88;;;13.30;99.90;;;;;;5111423;28;20028;-64
2021/05/24 06:56:54;;;;;;;2.92;1.13;;;13.30;99.90;;;;;;5110032;28;20023;-64
2021/05/24 06:59:19;;;;;;;2.20;0.98;;;13.40;99.90;;;;;;5109112;28;20546;-64
2021/05/24 07:01:45;;;;;;;1.45;0.80;;;13.60;99.90;;;;;;5110769;28;20038;-65
2021/05/24 07:04:11;;;;;;;6.15;1.00;;;13.40;99.90;;;;;;5110559;28;20063;-66
2021/05/24 07:06:37;;;;;;;3.25;1.00;;;13.60;99.90;;;;;;5109351;28;20019;-66
2021/05/24 07:09:03;;;;;;;3.15;1.00;;;13.80;99.90;;;;;;5110222;28;20118;-66
2021/05/24 07:11:28;;;;;;;3.30;1.08;;;13.80;99.90;;;;;;5110651;28;20098;-65
2021/05/24 07:13:54;;;;;;;3.95;0.90;;;13.60;99.90;;;;;;5110364;28;20112;-66
2021/05/24 07:16:20;;;;;;;1.65;1.10;;;13.70;99.90;;;;;;5110316;28;20153;-65
2021/05/24 07:18:45;;;;;;;3.53;1.15;;;14.00;99.90;;;;;;5108456;28;20138;-65
2021/05/24 07:21:11;;;;;;;2.40;0.82;;;14.20;99.90;;;;;;5109959;28;20102;-66
2021/05/24 07:23:36;;;;;;;3.05;1.00;;;14.50;99.70;;;;;;5110440;28;20051;-66
2021/05/24 07:26:02;;;;;;;3.55;1.05;;;14.60;98.80;;;;;;5109924;28;20019;-68
2021/05/24 07:28:28;;;;;;;4.20;1.55;;;14.80;98.60;;;;;;5110222;28;20482;-65
2021/05/24 07:30:54;;;;;;;2.40;0.77;;;14.90;98.20;;;;;;5110423;28;20176;-65
2021/05/24 07:33:19;;;;;;;1.92;0.63;;;15.10;98.00;;;;;;5110072;28;20110;-66
2021/05/24 07:35:45;;;;;;;3.78;0.90;;;15.00;98.20;;;;;;5110321;28;20337;-66
2021/05/24 07:38:11;;;;;;;2.38;0.93;;;15.00;98.00;;;;;;5107915;28;20059;-65
2021/05/24 07:40:37;;;;;;;1.73;0.90;;;14.70;98.60;;;;;;5109703;28;20024;-65
2021/05/24 07:43:03;;;;;;;2.88;0.95;;;14.80;98.20;;;;;;5109460;28;20119;-76
2021/05/24 07:45:29;;;;;;;3.92;0.70;;;14.70;98.50;;;;;;5108343;28;20100;-68
2021/05/24 07:47:55;;;;;;;1.10;0.70;;;14.70;98.60;;;;;;5108178;28;20056;-66
2021/05/24 07:50:21;;;;;;;3.30;1.38;;;14.70;98.10;;;;;;5109005;28;20114;-66
2021/05/24 07:52:46;;;;;;;2.20;1.25;;;15.20;97.70;;;;;;5110005;28;20062;-66
2021/05/24 07:55:12;;;;;;;1.50;1.00;;;15.20;97.80;;;;;;5109499;28;20174;-67
2021/05/24 07:57:39;;;;;;;2.17;0.98;;;15.40;97.60;;;;;;5109797;28;20310;-66
2021/05/24 08:00:07;;;;;;;4.28;0.80;;;15.90;99.90;;;;;;5110913;28;20062;-66
2021/05/24 08:02:33;;;;;;;1.77;0.75;;;16.00;99.90;;;;;;5114241;28;20039;-67
2021/05/24 08:04:59;;;;;;;1.52;0.80;;;16.30;99.90;;;;;;5093747;28;20111;-67
2021/05/24 08:07:25;;;;;;;2.72;1.23;;;16.90;99.90;;;;;;5095968;28;20551;-67
2021/05/24 08:09:51;;;;;;;3.72;0.70;;;17.20;95.50;;;;;;5093544;28;20080;-71
2021/05/24 08:12:17;;;;;;;4.53;0.80;;;17.40;95.70;;;;;;5092947;28;20109;-68
2021/05/24 08:14:43;;;;;;;3.70;0.65;;;17.70;94.90;;;;;;5093433;28;20024;-65
2021/05/24 08:17:09;;;;;;;1.95;0.75;;;17.50;93.40;;;;;;5092582;28;20433;-66
2021/05/24 08:19:35;;;;;;;1.77;0.70;;;17.40;92.90;;;;;;5091727;28;20388;-66
2021/05/24 08:22:01;;;;;;;3.42;0.50;;;17.00;93.00;;;;;;5092894;28;20046;-66
2021/05/24 08:24:26;;;;;;;1.60;0.70;;;16.90;93.40;;;;;;5093768;28;20497;-66
2021/05/24 08:26:52;;;;;;;7.00;0.50;;;17.20;93.10;;;;;;5107329;28;20040;-66
2021/05/24 08:29:18;;;;;;;1.20;0.40;;;16.70;92.10;;;;;;5091223;28;20338;-66
2021/05/24 08:31:43;;;;;;;4.63;0.77;;;17.00;92.30;;;;;;5092815;28;20031;-66
2021/05/24 08:34:09;;;;;;;1.77;0.63;;;17.30;91.60;;;;;;5091465;28;20024;-68
2021/05/24 08:36:36;;;;;;;1.63;0.50;;;17.60;90.80;;;;;;5092976;28;20028;-66
2021/05/24 08:39:05;;;;;;;2.10;0.40;;;17.50;90.10;;;;;;5092444;28;20044;-65
2021/05/24 08:41:33;;;;;;;2.30;0.40;;;17.40;88.90;;;;;;5089896;28;20073;-67
2021/05/24 08:43:59;;;;;;;3.17;0.47;;;17.50;88.40;;;;;;5090788;28;20092;-67
2021/05/24 08:46:26;;;;;;;3.40;0.52;;;17.50;87.10;;;;;;5091347;28;20076;-66
2021/05/24 08:48:52;;;;;;;1.23;0.50;;;17.60;86.20;;;;;;5092509;28;20031;-66
2021/05/24 08:51:18;;;;;;;1.20;0.40;;;17.90;86.60;;;;;;5091507;28;20032;-67
2021/05/24 08:53:43;;;;;;;2.10;0.30;;;17.80;86.00;;;;;;5092341;28;20057;-68
2021/05/24 08:56:09;;;;;;;2.28;0.55;;;17.80;85.20;;;;;;5106986;28;20027;-66
2021/05/24 08:58:36;;;;;;;1.90;0.38;;;17.90;84.70;;;;;;5110943;28;20027;-67
2021/05/24 09:01:02;;;;;;;2.67;0.77;;;17.80;85.00;;;;;;5112916;28;20141;-66
2021/05/24 09:03:32;;;;;;;1.83;0.30;;;17.90;85.00;;;;;;5112306;28;20467;-66
2021/05/24 09:06:00;;;;;;;1.80;0.38;;;17.90;84.30;;;;;;5112472;28;20393;-66
2021/05/24 09:08:40;;;;;;;1.40;0.60;;;17.70;84.60;;;;;;5112093;28;20041;-66
2021/05/24 09:11:27;;;;;;;1.98;0.68;;;17.70;84.30;;;;;;5111068;28;20119;-67
2021/05/24 09:13:53;;;;;;;4.00;0.55;;;17.90;84.00;;;;;;5112250;28;20043;-68
2021/05/24 09:16:32;;;;;;;1.98;0.40;;;18.00;83.30;;;;;;5111774;28;20103;-67
2021/05/24 09:19:18;;;;;;;3.13;0.60;;;17.90;81.70;;;;;;5110453;28;20097;-66
2021/05/24 09:21:59;;;;;;;2.38;0.50;;;17.50;84.30;;;;;;5110682;28;20113;-66
2021/05/24 09:24:33;;;;;;;2.22;0.57;;;18.00;84.30;;;;;;5109369;28;20036;-65
2021/05/24 09:27:01;;;;;;;1.02;0.40;;;18.20;82.70;;;;;;5112527;28;20073;-67
2021/05/24 09:29:43;;;;;;;1.90;0.70;;;18.40;82.90;;;;;;5112006;28;20118;-66
2021/05/24 09:32:20;;;;;;;3.20;0.55;;;18.20;82.80;;;;;;5111870;28;20042;-76
2021/05/24 09:34:48;;;;;;;2.65;0.47;;;18.90;92.30;;;;;;5110761;28;20076;-66
2021/05/24 09:37:15;;;;;;;2.28;0.30;;;19.20;79.20;;;;;;5110417;28;20053;-66
2021/05/24 09:39:41;;;;;;;3.53;0.40;;;19.20;79.50;;;;;;5111278;28;20027;-67
2021/05/24 09:42:17;;;;;;;0.90;0.30;;;19.50;79.60;;;;;;5112435;28;20028;-68
2021/05/24 09:44:53;;;;;;;2.90;0.65;;;19.90;76.20;;;;;;5110159;28;20031;-68
2021/05/24 09:47:52;;;;;;;1.48;0.73;;;20.10;75.70;;;;;;5111208;28;20028;-68
2021/05/24 09:50:21;;;;;;;1.83;0.20;;;20.00;73.90;;;;;;5065317;28;20112;-67
2021/05/24 09:52:48;;;;;;;3.80;0.40;;;20.00;73.10;;;;;;5110285;28;20023;-69
2021/05/24 09:55:23;;;;;;;3.30;0.30;;;20.20;72.30;;;;;;5110503;28;20043;-69
2021/05/24 09:57:58;;;;;;;1.55;0.80;;;20.30;72.30;;;;;;5111775;28;20022;-68
2021/05/24 10:00:29;;;;;;;4.28;0.45;;;20.20;70.90;;;;;;5109576;28;20023;-68
2021/05/24 10:02:55;;;;;;;;;;;20.70;85.80;;;;;;5112595;28;20137;-68
2021/05/24 10:05:22;;;;;;;3.72;0.25;;;20.80;80.60;;;;;;5109590;28;19915;-68
2021/05/24 10:07:48;;;;;;;1.80;0.10;;;20.70;78.20;;;;;;5110817;28;20055;-69
2021/05/24 10:10:14;;;;;;;1.17;0.63;;;20.60;78.60;;;;;;5110977;28;20104;-64
2021/05/24 10:12:40;;;;;;;1.27;0.30;;;20.60;78.00;;;;;;5111704;28;20028;-70
2021/05/24 10:15:08;;;;;;;2.22;0.38;;;20.60;76.90;;;;;;5111055;28;20098;-51
2021/05/24 10:17:34;;;;;;;9.57;0.52;;;21.00;83.40;;;;;;5110161;28;20475;-51
2021/05/24 10:20:00;;;;;;;4.55;0.28;;;21.50;75.20;;;;;;5110258;28;20032;-50
2021/05/24 10:22:25;;;;;;;1.90;0.20;;;21.70;68.70;;;;;;5109655;28;20472;-50
2021/05/24 10:24:52;;;;;;;5.07;0.30;;;21.60;74.00;;;;;;5110438;28;20069;-51
2021/05/24 10:27:19;;;;;;;1.98;0.30;;;21.50;69.10;;;;;;5108516;28;20130;-52
2021/05/24 10:29:45;;;;;;;1.65;0.28;;;21.60;69.10;;;;;;5108785;28;20028;-63
2021/05/24 10:32:21;;;;;;;1.08;0.20;;;21.40;65.70;;;;;;5110535;28;20035;-69
2021/05/24 10:34:47;;;;;;;3.30;0.28;;;21.40;66.10;;;;;;5109927;28;20077;-67
2021/05/24 10:37:17;;;;;;;0.85;0.20;;;21.20;65.00;;;;;;5108819;28;20038;-72
2021/05/24 10:39:46;;;;;;;1.38;0.30;;;21.50;65.20;;;;;;5108321;28;20028;-68
2021/05/24 10:42:13;;;;;;;0.98;0.20;;;21.60;64.40;;;;;;5109288;28;20032;-70
2021/05/24 10:44:43;;;;;;;2.60;0.40;;;21.50;60.10;;;;;;5109059;28;20031;-69
2021/05/24 10:47:26;;;;;;;1.63;0.38;;;21.60;61.70;;;;;;5109101;28;20142;-69
2021/05/24 10:50:03;;;;;;;3.00;0.43;;;22.00;63.40;;;;;;5109235;28;20036;-68
2021/05/24 10:52:36;;;;;;;3.00;0.40;;;22.50;63.50;;;;;;5110009;28;20020;-69
2021/05/24 10:55:30;;;;;;;0.32;0.20;;;23.00;62.20;;;;;;5110431;28;20035;-69
2021/05/24 10:57:57;;;;;;;1.65;0.28;;;22.90;55.10;;;;;;5109223;28;20031;-70
2021/05/24 11:00:23;;;;;;;1.42;0.80;;;23.00;54.60;;;;;;5108320;28;20073;-70
2021/05/24 11:02:54;;;;;;;3.70;0.47;;;22.40;55.30;;;;;;5109034;28;20031;-69
2021/05/24 11:05:27;;;;;;;0.10;0.00;;;22.90;53.80;;;;;;5110308;28;20085;-68
2021/05/24 11:08:04;;;;;;;1.67;0.20;;;22.50;53.10;;;;;;5110174;28;20079;-68
2021/05/24 11:10:46;;;;;;;4.28;0.63;;;22.60;54.00;;;;;;5109412;28;20030;-70
2021/05/24 11:13:12;;;;;;;2.35;0.25;;;22.90;52.80;;;;;;5108426;28;20062;-68
2021/05/24 11:15:45;;;;;;;2.90;0.30;;;22.80;53.50;;;;;;5107587;28;20031;-68
2021/05/24 11:18:21;;;;;;;2.70;0.20;;;22.90;52.30;;;;;;5109286;28;20052;-67
2021/05/24 11:21:22;;;;;;;1.10;0.40;;;22.60;52.10;;;;;;5110051;28;20068;-68
2021/05/24 11:26:36;;;;;;;1.75;0.17;;;22.40;52.60;;;;;;5109380;28;20031;-67
2021/05/24 11:29:16;;;;;;;1.42;0.15;;;22.30;50.10;;;;;;5109870;28;20448;-68
2021/05/24 11:31:56;;;;;;;2.00;0.80;;;22.50;51.50;;;;;;5107843;28;20123;-68
2021/05/24 11:34:31;;;;;;;2.10;0.28;;;22.30;50.80;;;;;;5108649;28;20108;-67
2021/05/24 11:37:03;;;;;;;4.25;0.77;;;21.50;52.30;;;;;;5109998;28;20020;-68
2021/05/24 11:39:32;;;;;;;0.43;0.22;;;22.00;52.30;;;;;;5107434;28;20028;-68
2021/05/24 11:42:04;;;;;;;3.17;0.47;;;22.30;48.60;;;;;;5108141;28;20054;-69
2021/05/24 11:44:51;;;;;;;1.60;0.30;;;22.80;48.70;;;;;;5109375;28;20199;-69
2021/05/24 11:47:20;;;;;;;1.13;0.38;;;22.80;48.50;;;;;;5109192;28;20032;-74
2021/05/24 11:49:57;;;;;;;4.18;0.75;;;22.70;49.10;;;;;;5109572;28;20036;-69
2021/05/24 11:52:25;;;;;;;2.45;0.63;;;22.80;49.10;;;;;;5108966;28;20051;-69
2021/05/24 11:54:52;;;;;;;2.33;0.20;;;23.20;49.00;;;;;;5107983;28;20064;-69
2021/05/24 11:57:20;;;;;;;1.85;0.45;;;23.20;48.10;;;;;;5109145;28;20065;-75
2021/05/24 11:59:46;;;;;;;1.23;0.10;;;22.50;48.80;;;;;;5107658;28;20056;-69
2021/05/24 12:02:12;;;;;;;3.92;0.57;;;23.00;49.20;;;;;;5107530;28;20126;-68
2021/05/24 12:04:43;;;;;;;1.13;0.15;;;22.90;46.40;;;;;;5109248;28;20028;-69
2021/05/24 12:07:20;;;;;;;1.15;0.28;;;22.50;46.80;;;;;;5107927;28;20032;-68
2021/05/24 12:09:55;;;;;;;1.70;0.43;;;22.70;47.10;;;;;;5109095;28;20035;-70
2021/05/24 12:12:27;;;;;;;0.95;0.20;;;23.00;47.50;;;;;;5106961;28;20034;-68
2021/05/24 12:15:15;;;;;;;1.45;0.30;;;22.80;48.00;;;;;;5109367;28;20104;-69
2021/05/24 12:17:46;;;;;;;0.50;0.20;;;22.50;48.30;;;;;;5106588;28;20044;-68
2021/05/24 12:20:12;;;;;;;0.95;0.22;;;22.10;48.70;;;;;;5107791;28;20044;-69
2021/05/24 12:22:40;;;;;;;3.35;0.50;;;22.50;48.90;;;;;;5108372;28;20115;-70
2021/05/24 12:25:08;;;;;;;1.02;0.30;;;22.90;48.20;;;;;;5108923;28;20034;-69
2021/05/24 12:27:34;;;;;;;3.30;0.40;;;22.90;48.40;;;;;;5107112;28;20039;-68
2021/05/24 12:30:16;;;;;;;1.38;0.50;;;23.10;48.60;;;;;;5107746;28;20409;-49
2021/05/24 12:33:06;;;;;;;0.90;0.40;;;22.50;50.30;;;;;;5106588;28;20027;-52
2021/05/24 12:35:37;;;;;;;3.28;0.28;;;22.80;50.20;;;;;;5096386;28;20413;-50
2021/05/24 12:38:17;;;;;;;0.93;0.50;;;22.80;51.40;;;;;;5108722;28;20059;-50
2021/05/24 12:40:43;;;;;;;2.60;0.35;;;22.10;50.70;;;;;;5106375;28;20020;-50
2021/05/24 12:43:09;;;;;;;1.92;0.45;;;22.30;51.40;;;;;;5108927;28;20032;-50
2021/05/24 12:45:34;;;;;;;3.30;0.52;;;22.60;51.40;;;;;;5093012;28;20377;-51
2021/05/24 12:48:23;;;;;;;1.95;0.20;;;22.50;51.80;;;;;;5113080;28;20322;-51
2021/05/24 12:50:50;;;;;;;2.58;0.77;;;22.50;53.00;;;;;;5111479;28;20036;-50
2021/05/24 12:53:21;;;;;;;2.78;0.40;;;22.40;52.10;;;;;;5112928;28;20089;-50
2021/05/24 12:55:50;;;;;;;0.68;0.30;;;22.10;53.00;;;;;;5111989;28;20052;-50